createdAt,value
2024-04-22T00:01:26.625Z,3.67
2024-04-22T00:03:57.527Z,3.51
2024-04-22T00:06:25.906Z,3.61
2024-04-22T00:08:56.486Z,3.61
2024-04-22T00:11:27.595Z,3.53
2024-04-22T00:13:58.497Z,3.32
2024-04-22T00:16:26.693Z,3.37
2024-04-22T00:18:57.499Z,3.42
2024-04-22T00:21:28.265Z,3.31
2024-04-22T00:23:56.477Z,3.37
2024-04-22T00:26:30.265Z,3.31
2024-04-22T00:28:58.500Z,3.32
2024-04-22T00:31:29.337Z,3.29
2024-04-22T00:33:57.517Z,3.30
2024-04-22T00:36:28.271Z,3.30
2024-04-22T00:38:56.512Z,3.29
2024-04-22T00:41:32.521Z,3.29
2024-04-22T00:44:00.496Z,3.33
2024-04-22T00:46:31.313Z,3.25
2024-04-22T00:48:59.519Z,3.10
2024-04-22T00:51:30.329Z,2.98
2024-04-22T00:53:59.522Z,2.94
2024-04-22T00:56:33.299Z,2.81
2024-04-22T00:59:01.554Z,2.88
2024-04-22T01:01:32.347Z,2.87
2024-04-22T01:04:00.291Z,2.93
2024-04-22T01:06:31.539Z,2.89
2024-04-22T01:08:59.007Z,2.78
2024-04-22T01:11:29.638Z,2.82
2024-04-22T01:14:03.801Z,2.65
2024-04-22T01:16:34.609Z,2.67
2024-04-22T01:19:01.996Z,2.64
2024-04-22T01:21:35.555Z,2.70
2024-04-22T01:24:03.172Z,2.65
2024-04-22T01:26:33.565Z,2.71
2024-04-22T01:29:01.051Z,2.62
2024-04-22T01:31:31.622Z,2.61
2024-04-22T01:33:59.486Z,2.59
2024-04-22T01:36:30.557Z,2.56
2024-04-22T01:39:02.563Z,2.59
2024-04-22T01:41:33.575Z,2.55
2024-04-22T01:44:01.083Z,2.38
2024-04-22T01:46:31.761Z,2.43
2024-04-22T01:48:59.255Z,2.37
2024-04-22T01:51:29.591Z,2.29
2024-04-22T01:53:57.047Z,2.22
2024-04-22T01:56:30.836Z,2.21
2024-04-22T01:58:59.127Z,2.09
2024-04-22T02:01:29.635Z,2.21
2024-04-22T02:03:57.398Z,2.16
2024-04-22T02:06:28.386Z,2.21
2024-04-22T02:08:55.601Z,2.24
2024-04-22T02:11:29.808Z,2.28
2024-04-22T02:13:57.644Z,2.26
2024-04-22T02:16:27.435Z,2.24
2024-04-22T02:18:56.615Z,2.30
2024-04-22T02:21:30.183Z,2.21
2024-04-22T02:23:58.630Z,2.29
2024-04-22T02:26:31.403Z,2.27
2024-04-22T02:29:00.631Z,2.32
2024-04-22T02:31:31.050Z,2.31
2024-04-22T02:33:59.627Z,2.27
2024-04-22T02:36:29.436Z,2.22
2024-04-22T02:38:58.650Z,2.30
2024-04-22T02:41:31.408Z,2.24
2024-04-22T02:44:00.729Z,2.14
2024-04-22T02:46:30.537Z,2.20
2024-04-22T02:48:59.667Z,2.17
2024-04-22T02:51:29.453Z,2.16
2024-04-22T02:53:58.643Z,2.13
2024-04-22T02:56:31.463Z,2.08
2024-04-22T02:59:00.669Z,2.16
2024-04-22T03:01:33.986Z,2.11
2024-04-22T03:04:03.724Z,2.08
2024-04-22T03:06:33.677Z,1.99
2024-04-22T03:09:02.684Z,1.92
2024-04-22T03:11:36.549Z,1.88
2024-04-22T03:14:05.736Z,1.87
2024-04-22T03:16:35.528Z,1.83
2024-04-22T03:19:04.680Z,1.77
2024-04-22T03:21:34.502Z,1.73
2024-04-22T03:24:04.726Z,1.72
2024-04-22T03:26:37.482Z,1.66
2024-04-22T03:29:06.732Z,1.68
2024-04-22T03:31:36.535Z,1.62
2024-04-22T03:34:05.722Z,1.69
2024-04-22T03:36:35.485Z,1.70
2024-04-22T03:39:07.719Z,1.69
2024-04-22T03:41:40.496Z,1.70
2024-04-22T03:44:12.716Z,1.70
2024-04-22T03:46:58.396Z,1.65
2024-04-22T03:49:41.769Z,1.67
2024-04-22T03:52:11.555Z,1.66
2024-04-22T03:54:43.755Z,1.63
2024-04-22T03:57:16.522Z,1.61
2024-04-22T03:59:48.722Z,1.58
2024-04-22T04:02:15.887Z,1.52
2024-04-22T04:04:47.814Z,1.47
2024-04-22T04:07:14.918Z,1.45
2024-04-22T04:09:46.769Z,1.50
2024-04-22T04:12:16.901Z,1.51
2024-04-22T04:14:47.879Z,1.50
2024-04-22T04:17:15.830Z,1.42
2024-04-22T04:19:46.898Z,1.39
2024-04-22T04:22:14.832Z,1.35
2024-04-22T04:24:45.920Z,1.36
2024-04-22T04:27:17.789Z,1.40
2024-04-22T04:29:48.875Z,1.52
2024-04-22T04:32:16.795Z,1.54
2024-04-22T04:34:47.932Z,1.60
2024-04-22T04:37:14.934Z,1.63
2024-04-22T04:39:46.793Z,1.69
2024-04-22T04:42:16.911Z,1.75
2024-04-22T04:44:48.783Z,1.80
2024-04-22T04:47:16.015Z,1.86
2024-04-22T04:49:46.991Z,1.94
2024-04-22T04:52:14.883Z,2.04
2024-04-22T04:54:47.786Z,2.14
2024-04-22T04:57:18.379Z,2.24
2024-04-22T04:59:48.818Z,2.37
2024-04-22T05:02:16.366Z,2.52
2024-04-22T05:04:46.835Z,2.65
2024-04-22T05:07:15.638Z,2.79
2024-04-22T05:09:47.049Z,2.91
2024-04-22T05:12:14.829Z,3.04
2024-04-22T05:14:48.596Z,3.16
2024-04-22T05:17:16.925Z,3.30
2024-04-22T05:19:48.026Z,3.38
2024-04-22T05:22:16.856Z,3.48
2024-04-22T05:24:47.970Z,3.52
2024-04-22T05:27:15.853Z,3.55
2024-04-22T05:29:51.805Z,3.63
2024-04-22T05:32:19.899Z,3.72
2024-04-22T05:35:06.878Z,3.87
2024-04-22T05:37:36.940Z,4.11
2024-04-22T05:40:08.960Z,4.25
2024-04-22T05:42:39.872Z,4.08
2024-04-22T05:45:13.725Z,4.22
2024-04-22T05:47:43.939Z,4.32
2024-04-22T05:50:15.054Z,4.46
2024-04-22T05:52:44.705Z,4.59
2024-04-22T05:55:13.395Z,4.75
2024-04-22T05:57:45.944Z,5.02
2024-04-22T06:00:18.028Z,5.29
2024-04-22T06:02:48.971Z,5.45
2024-04-22T06:05:20.311Z,5.59
2024-04-22T06:07:50.934Z,5.49
2024-04-22T06:10:19.145Z,5.59
2024-04-22T06:12:50.036Z,5.84
2024-04-22T06:15:21.013Z,6.03
2024-04-22T06:17:51.953Z,6.11
2024-04-22T06:20:20.058Z,6.05
2024-04-22T06:22:50.997Z,5.82
2024-04-22T06:25:19.500Z,6.07
2024-04-22T06:27:51.934Z,6.20
2024-04-22T06:30:23.074Z,6.33
2024-04-22T06:32:54.028Z,6.10
2024-04-22T06:35:23.405Z,6.47
2024-04-22T06:37:53.975Z,6.56
2024-04-22T06:40:22.740Z,6.54
2024-04-22T06:42:53.713Z,6.69
2024-04-22T06:45:24.938Z,6.18
2024-04-22T06:47:55.122Z,5.80
2024-04-22T06:50:23.946Z,5.91
2024-04-22T06:52:54.623Z,5.85
2024-04-22T06:55:25.889Z,5.84
2024-04-22T06:57:56.098Z,6.08
2024-04-22T07:00:27.990Z,6.16
2024-04-22T07:02:58.382Z,6.22
2024-04-22T07:05:27.020Z,6.16
2024-04-22T07:07:57.506Z,6.27
2024-04-22T07:10:25.978Z,6.01
2024-04-22T07:12:56.097Z,6.26
2024-04-22T07:15:28.006Z,6.81
2024-04-22T07:17:58.201Z,7.08
2024-04-22T07:20:27.006Z,7.36
2024-04-22T07:22:57.099Z,7.21
2024-04-22T07:25:27.004Z,7.61
2024-04-22T07:28:00.243Z,7.92
2024-04-22T07:30:31.994Z,7.56
2024-04-22T07:33:02.819Z,7.48
2024-04-22T07:35:33.006Z,7.60
2024-04-22T07:38:06.041Z,7.48
2024-04-22T07:40:36.092Z,7.81
2024-04-22T07:43:06.329Z,7.56
2024-04-22T07:45:37.389Z,7.63
2024-04-22T07:48:09.139Z,7.79
2024-04-22T07:50:37.488Z,7.84
2024-04-22T07:53:09.298Z,7.86
2024-04-22T07:55:38.698Z,8.08
2024-04-22T07:58:09.057Z,7.78
2024-04-22T08:00:40.290Z,8.25
2024-04-22T08:03:11.160Z,8.21
2024-04-22T08:05:40.149Z,7.62
2024-04-22T08:08:12.075Z,7.48
2024-04-22T08:10:40.613Z,7.65
2024-04-22T08:13:11.047Z,7.75
2024-04-22T08:15:43.845Z,8.02
2024-04-22T08:18:15.980Z,8.40
2024-04-22T08:20:45.091Z,8.44
2024-04-22T08:23:14.848Z,8.33
2024-04-22T08:25:43.921Z,8.43
2024-04-22T08:28:14.105Z,8.49
2024-04-22T08:30:45.297Z,8.20
2024-04-22T08:33:16.153Z,8.55
2024-04-22T08:35:48.338Z,8.56
2024-04-22T08:38:19.125Z,8.86
2024-04-22T08:40:47.590Z,8.27
2024-04-22T08:43:18.132Z,9.00
2024-04-22T08:45:49.297Z,8.71
2024-04-22T08:48:20.116Z,8.63
2024-04-22T08:50:51.524Z,8.65
2024-04-22T08:53:21.397Z,8.66
2024-04-22T08:55:50.196Z,8.49
2024-04-22T08:58:20.342Z,8.66
2024-04-22T09:00:52.155Z,8.43
2024-04-22T09:03:22.363Z,8.37
2024-04-22T09:05:51.173Z,8.14
2024-04-22T09:08:21.811Z,8.06
2024-04-22T09:11:27.296Z,8.07
2024-04-22T09:13:48.605Z,8.48
2024-04-22T09:16:20.229Z,8.65
2024-04-22T09:18:50.413Z,8.59
2024-04-22T09:21:18.319Z,8.46
2024-04-22T09:23:48.258Z,8.22
2024-04-22T09:26:16.825Z,8.25
2024-04-22T09:28:49.995Z,8.58
2024-04-22T09:31:23.190Z,8.62
2024-04-22T09:33:54.794Z,8.40
2024-04-22T09:36:25.168Z,8.85
2024-04-22T09:38:58.286Z,9.39
2024-04-22T09:41:30.256Z,9.46
2024-04-22T09:44:06.621Z,9.54
2024-04-22T09:46:45.297Z,9.72
2024-04-22T09:49:18.587Z,9.48
2024-04-22T09:51:47.867Z,9.21
2024-04-22T09:54:19.200Z,8.69
2024-04-22T09:56:48.706Z,8.73
2024-04-22T09:59:22.300Z,8.70
2024-04-22T10:01:53.472Z,8.47
2024-04-22T10:04:24.241Z,8.19
2024-04-22T10:06:52.330Z,8.23
2024-04-22T10:09:24.263Z,8.33
2024-04-22T10:11:53.717Z,8.62
2024-04-22T10:14:25.218Z,8.72
2024-04-22T10:17:01.439Z,8.40
2024-04-22T10:19:32.970Z,8.64
2024-04-22T10:22:02.352Z,8.91
2024-04-22T10:24:34.276Z,8.68
2024-04-22T10:27:09.977Z,9.12
2024-04-22T10:29:45.265Z,9.02
2024-04-22T10:32:16.958Z,9.18
2024-04-22T10:34:48.319Z,9.05
2024-04-22T10:37:16.494Z,9.24
2024-04-22T10:39:47.304Z,9.25
2024-04-22T10:42:17.128Z,9.44
2024-04-22T10:44:48.218Z,9.46
2024-04-22T10:47:20.327Z,9.37
2024-04-22T10:49:51.182Z,9.84
2024-04-22T10:52:19.535Z,9.97
2024-04-22T10:54:53.240Z,10.76
2024-04-22T10:57:21.418Z,9.84
2024-04-22T10:59:52.431Z,10.06
2024-04-22T11:02:25.438Z,10.18
2024-04-22T11:04:55.546Z,10.34
2024-04-22T11:07:25.338Z,9.96
2024-04-22T11:09:56.845Z,9.54
2024-04-22T11:12:28.268Z,9.82
2024-04-22T11:15:01.264Z,9.99
2024-04-22T11:17:32.467Z,9.73
2024-04-22T11:20:13.292Z,10.66
2024-04-22T11:22:41.541Z,10.73
2024-04-22T11:25:13.350Z,11.22
2024-04-22T11:27:41.503Z,10.91
2024-04-22T11:30:13.344Z,9.88
2024-04-22T11:32:44.518Z,9.55
2024-04-22T11:35:16.349Z,9.52
2024-04-22T11:37:44.567Z,9.80
2024-04-22T11:40:14.609Z,10.52
2024-04-22T11:42:43.344Z,11.07
2024-04-22T11:45:13.747Z,10.33
2024-04-22T11:47:45.621Z,10.36
2024-04-22T11:50:15.620Z,9.64
2024-04-22T11:52:44.390Z,9.15
2024-04-22T11:55:14.786Z,9.85
2024-04-22T11:57:43.356Z,11.13
2024-04-22T12:00:14.326Z,11.15
2024-04-22T12:02:45.510Z,10.57
2024-04-22T12:05:17.606Z,10.32
2024-04-22T12:07:45.587Z,10.30
2024-04-22T12:10:13.434Z,11.13
2024-04-22T12:12:44.125Z,11.85
2024-04-22T12:15:14.463Z,11.12
2024-04-22T12:17:48.242Z,11.43
2024-04-22T12:20:16.373Z,10.91
2024-04-22T12:22:47.276Z,9.37
2024-04-22T12:25:14.960Z,8.62
2024-04-22T12:27:45.375Z,8.16
2024-04-22T12:30:12.943Z,7.96
2024-04-22T12:32:43.209Z,7.79
2024-04-22T12:35:14.438Z,8.70
2024-04-22T12:37:45.219Z,8.93
2024-04-22T12:40:13.396Z,9.48
2024-04-22T12:42:44.195Z,9.24
2024-04-22T12:45:12.293Z,8.76
2024-04-22T12:47:59.488Z,8.81
2024-04-22T12:50:49.486Z,8.59
2024-04-22T12:53:21.435Z,8.48
2024-04-22T12:55:52.253Z,8.82
2024-04-22T12:58:21.483Z,9.19
2024-04-22T13:00:52.267Z,9.12
2024-04-22T13:03:24.460Z,9.69
2024-04-22T13:05:57.529Z,10.52
2024-04-22T13:08:28.478Z,9.68
2024-04-22T13:10:58.792Z,9.32
2024-04-22T13:13:29.472Z,9.84
2024-04-22T13:15:59.604Z,10.16
2024-04-22T13:18:27.562Z,10.51
2024-04-22T13:21:00.309Z,9.68
2024-04-22T13:23:29.452Z,9.45
2024-04-22T13:25:59.301Z,9.80
2024-04-22T13:28:28.508Z,11.34
2024-04-22T13:30:58.253Z,10.95
2024-04-22T13:33:27.012Z,11.83
2024-04-22T13:36:01.561Z,12.88
2024-04-22T13:38:30.084Z,11.57
2024-04-22T13:41:00.512Z,12.15
2024-04-22T13:43:29.004Z,12.91
2024-04-22T13:45:59.325Z,14.16
2024-04-22T13:48:28.534Z,14.67
2024-04-22T13:51:01.269Z,14.44
2024-04-22T13:53:32.218Z,14.04
2024-04-22T13:56:02.572Z,14.20
2024-04-22T13:58:31.131Z,13.41
2024-04-22T14:01:02.544Z,13.22
2024-04-22T14:03:31.071Z,13.87
2024-04-22T14:06:06.305Z,13.12
2024-04-22T14:08:39.536Z,15.55
2024-04-22T14:11:08.182Z,13.19
2024-04-22T14:13:39.548Z,11.75
2024-04-22T14:16:07.724Z,11.44
2024-04-22T14:18:38.651Z,11.05
2024-04-22T14:21:08.720Z,10.44
2024-04-22T14:23:39.559Z,9.63
2024-04-22T14:26:07.049Z,9.57
2024-04-22T14:28:41.637Z,9.83
2024-04-22T14:31:10.108Z,10.40
2024-04-22T14:33:40.418Z,11.41
2024-04-22T14:36:11.551Z,11.95
2024-04-22T14:38:42.687Z,11.87
2024-04-22T14:41:10.558Z,11.27
2024-04-22T14:43:40.697Z,11.73
2024-04-22T14:46:09.576Z,11.21
2024-04-22T14:48:40.035Z,12.25
2024-04-22T14:51:11.605Z,12.17
2024-04-22T14:53:41.803Z,12.04
2024-04-22T14:56:10.589Z,12.18
2024-04-22T14:58:40.825Z,10.81
2024-04-22T15:01:09.630Z,11.20
2024-04-22T15:03:39.981Z,11.79
2024-04-22T15:06:11.596Z,11.56
2024-04-22T15:08:41.738Z,11.49
2024-04-22T15:11:11.741Z,13.04
2024-04-22T15:13:41.905Z,13.67
2024-04-22T15:16:10.597Z,14.94
2024-04-22T15:18:40.769Z,15.29
2024-04-22T15:21:14.660Z,14.68
2024-04-22T15:23:47.012Z,14.22
2024-04-22T15:26:15.614Z,13.05
2024-04-22T15:28:50.538Z,11.88
2024-04-22T15:31:19.731Z,11.40
2024-04-22T15:33:49.767Z,10.84
2024-04-22T15:36:21.638Z,10.75
2024-04-22T15:38:51.885Z,10.56
2024-04-22T15:41:19.635Z,11.00
2024-04-22T15:43:50.768Z,11.34
2024-04-22T15:46:19.671Z,11.32
2024-04-22T15:48:49.417Z,11.25
2024-04-22T15:51:21.665Z,11.60
2024-04-22T15:53:51.213Z,10.05
2024-04-22T15:56:19.010Z,9.77
2024-04-22T15:58:49.853Z,10.96
2024-04-22T16:01:17.871Z,12.14
2024-04-22T16:03:48.712Z,10.84
2024-04-22T16:06:16.800Z,10.25
2024-04-22T16:08:49.667Z,9.87
2024-04-22T16:11:17.813Z,10.37
2024-04-22T16:13:47.751Z,10.79
2024-04-22T16:16:16.187Z,9.80
2024-04-22T16:18:46.740Z,9.58
2024-04-22T16:21:17.444Z,9.41
2024-04-22T16:23:50.724Z,9.19
2024-04-22T16:26:19.596Z,9.13
2024-04-22T16:28:49.832Z,9.28
2024-04-22T16:31:19.186Z,9.30
2024-04-22T16:33:49.727Z,9.49
2024-04-22T16:36:17.859Z,9.13
2024-04-22T16:38:50.795Z,8.96
2024-04-22T16:41:18.847Z,8.71
2024-04-22T16:43:49.809Z,8.64
2024-04-22T16:46:17.855Z,8.54
2024-04-22T16:48:48.757Z,8.50
2024-04-22T16:51:16.872Z,8.27
2024-04-22T16:53:51.253Z,8.24
2024-04-22T16:56:22.876Z,7.98
2024-04-22T16:58:53.836Z,7.79
2024-04-22T17:01:21.986Z,7.66
2024-04-22T17:03:51.988Z,7.46
2024-04-22T17:06:20.746Z,7.44
2024-04-22T17:08:50.898Z,7.35
2024-04-22T17:11:19.811Z,7.37
2024-04-22T17:13:52.651Z,7.49
2024-04-22T17:16:22.553Z,7.40
2024-04-22T17:18:55.765Z,7.33
2024-04-22T17:21:23.909Z,7.20
2024-04-22T17:23:54.772Z,7.10
2024-04-22T17:26:24.401Z,7.06
2024-04-22T17:28:58.823Z,6.92
2024-04-22T17:31:27.344Z,6.76
2024-04-22T17:33:58.807Z,6.61
2024-04-22T17:36:26.960Z,6.57
2024-04-22T17:38:56.915Z,6.48
2024-04-22T17:41:25.794Z,6.47
2024-04-22T17:43:59.187Z,6.49
2024-04-22T17:46:27.804Z,6.34
2024-04-22T17:48:57.998Z,6.28
2024-04-22T17:51:27.811Z,6.31
2024-04-22T17:53:58.027Z,6.22
2024-04-22T17:56:26.817Z,6.19
2024-04-22T17:58:59.630Z,6.17
2024-04-22T18:01:28.014Z,6.16
2024-04-22T18:03:58.858Z,6.13
2024-04-22T18:06:26.986Z,6.10
2024-04-22T18:08:57.301Z,6.07
2024-04-22T18:11:28.957Z,6.16
2024-04-22T18:14:02.018Z,6.19
2024-04-22T18:16:30.866Z,6.20
2024-04-22T18:19:01.583Z,6.23
2024-04-22T18:21:30.953Z,6.18
2024-04-22T18:24:03.359Z,6.05
2024-04-22T18:26:34.104Z,5.95
2024-04-22T18:29:07.332Z,5.91
2024-04-22T18:31:35.240Z,5.76
2024-04-22T18:34:05.914Z,5.69
2024-04-22T18:36:34.031Z,5.56
2024-04-22T18:39:07.129Z,5.33
2024-04-22T18:41:38.054Z,5.20
2024-04-22T18:44:11.153Z,5.22
2024-04-22T18:46:40.977Z,4.95
2024-04-22T18:49:10.884Z,4.91
2024-04-22T18:51:40.102Z,4.89
2024-04-22T18:54:09.669Z,4.95
2024-04-22T18:56:38.897Z,4.76
2024-04-22T18:59:11.789Z,4.60
2024-04-22T19:01:40.625Z,4.46
2024-04-22T19:04:10.765Z,4.43
2024-04-22T19:06:38.914Z,4.38
2024-04-22T19:09:10.491Z,4.34
2024-04-22T19:11:38.202Z,4.20
2024-04-22T19:14:08.958Z,4.20
2024-04-22T19:16:40.134Z,4.17
2024-04-22T19:19:10.936Z,4.35
2024-04-22T19:21:39.070Z,4.20
2024-04-22T19:24:10.904Z,4.21
2024-04-22T19:26:39.395Z,4.32
2024-04-22T19:29:09.986Z,4.30
2024-04-22T19:31:41.163Z,4.28
2024-04-22T19:34:11.979Z,4.30
2024-04-22T19:36:40.228Z,4.34
2024-04-22T19:39:12.950Z,4.28
2024-04-22T19:41:45.151Z,4.24
2024-04-22T19:44:15.728Z,4.34
2024-04-22T19:46:47.995Z,4.32
2024-04-22T19:49:17.743Z,4.33
2024-04-22T19:51:46.961Z,4.33
2024-04-22T19:54:16.763Z,4.36
2024-04-22T19:56:45.944Z,4.41
2024-04-22T19:59:15.746Z,4.38
2024-04-22T20:01:48.017Z,4.37
2024-04-22T20:04:17.817Z,4.38
2024-04-22T20:06:46.991Z,4.32
2024-04-22T20:09:16.745Z,4.28
2024-04-22T20:11:45.010Z,4.23
2024-04-22T20:14:15.772Z,4.16
2024-04-22T20:17:00.092Z,4.01
2024-04-22T20:19:34.600Z,3.82
2024-04-22T20:22:04.977Z,3.64
2024-04-22T20:24:35.763Z,3.62
2024-04-22T20:27:06.002Z,3.31
2024-04-22T20:29:35.776Z,3.19
2024-04-22T20:32:08.255Z,3.05
2024-04-22T20:34:38.926Z,3.02
2024-04-22T20:37:07.020Z,2.90
2024-04-22T20:39:37.168Z,2.73
2024-04-22T20:42:05.125Z,2.71
2024-04-22T20:44:36.033Z,2.65
2024-04-22T20:47:07.250Z,2.57
2024-04-22T20:49:38.061Z,2.62
2024-04-22T20:52:06.228Z,2.50
2024-04-22T20:54:36.136Z,2.36
2024-04-22T20:57:05.030Z,2.36
2024-04-22T20:59:35.196Z,2.20
2024-04-22T21:02:03.313Z,2.09
2024-04-22T21:04:36.089Z,2.08
2024-04-22T21:07:05.467Z,2.17
2024-04-22T21:09:36.057Z,2.11
2024-04-22T21:12:04.675Z,2.05
2024-04-22T21:14:35.051Z,1.84
2024-04-22T21:17:03.592Z,1.77
2024-04-22T21:19:35.867Z,1.70
2024-04-22T21:22:05.066Z,1.66
2024-04-22T21:24:34.840Z,1.74
2024-04-22T21:27:04.069Z,1.81
2024-04-22T21:29:33.878Z,1.66
2024-04-22T21:32:04.101Z,1.51
2024-04-22T21:34:37.033Z,1.43
2024-04-22T21:37:06.092Z,1.36
2024-04-22T21:39:35.851Z,1.33
2024-04-22T21:42:05.098Z,1.33
2024-04-22T21:44:34.904Z,1.25
2024-04-22T21:47:04.209Z,1.31
2024-04-22T21:49:36.939Z,1.12
2024-04-22T21:52:08.075Z,1.02
2024-04-22T21:54:38.506Z,0.99
2024-04-22T21:57:45.340Z,0.99
2024-04-22T22:00:53.171Z,0.96
2024-04-22T22:04:00.145Z,0.93
2024-04-22T22:07:07.927Z,0.93
2024-04-22T22:09:40.109Z,0.83
2024-04-22T22:12:09.905Z,0.76
2024-04-22T22:14:39.130Z,0.80
2024-04-22T22:17:10.607Z,0.84
2024-04-22T22:19:39.159Z,0.89
2024-04-22T22:22:09.047Z,0.87
2024-04-22T22:24:43.182Z,0.85
2024-04-22T22:27:14.992Z,0.81
2024-04-22T22:29:44.147Z,0.76
2024-04-22T22:32:14.018Z,0.83
2024-04-22T22:34:42.691Z,0.94
2024-04-22T22:37:13.148Z,0.93
2024-04-22T22:39:45.514Z,1.02
2024-04-22T22:42:17.163Z,1.11
2024-04-22T22:44:45.678Z,0.97
2024-04-22T22:47:16.252Z,1.10
2024-04-22T22:49:44.307Z,0.97
2024-04-22T22:52:15.169Z,1.06
2024-04-22T22:54:46.305Z,0.97
2024-04-22T22:57:17.182Z,0.98
2024-04-22T22:59:45.325Z,0.91
2024-04-22T23:02:16.192Z,0.87
2024-04-22T23:04:44.307Z,0.70
2024-04-22T23:07:15.423Z,0.73
2024-04-22T23:09:46.316Z,0.58
2024-04-22T23:12:17.183Z,0.67
2024-04-22T23:14:45.323Z,0.52
2024-04-22T23:17:16.282Z,0.47
2024-04-22T23:19:44.431Z,0.47
2024-04-22T23:22:15.195Z,0.45
2024-04-22T23:24:46.307Z,0.35
2024-04-22T23:27:20.543Z,0.36
2024-04-22T23:29:48.330Z,0.37
2024-04-22T23:32:19.223Z,0.27
2024-04-22T23:34:47.373Z,0.28
2024-04-22T23:37:19.221Z,0.33
2024-04-22T23:39:50.360Z,0.19
2024-04-22T23:42:21.215Z,0.21
2024-04-22T23:44:48.776Z,0.23
2024-04-22T23:47:19.248Z,0.13
2024-04-22T23:49:48.118Z,0.15
2024-04-22T23:52:18.026Z,0.13
2024-04-22T23:54:50.244Z,0.08
2024-04-22T23:57:20.033Z,0.09
2024-04-22T23:59:49.244Z,0.00
